Airfield :
LOGIN :

Register | Disclaimer

   EN    FR    IT 

 










Legend :    VFR   Marginal VFR   IFR   Intensive IFR   Very Intensive IFR
Visi :
Ceiling :
>= 8 km
>= 3000ft
5 to 8 km
1000 to 3000 ft
1500m to 5 km
500 to 1000 ft
800 to 1500m
200 to 500 ft
< 800m
< 200 ft
Symbols :   Thunderstorms  Fog  Heavy snow  Heavy precipitations  Wind > 20 kt
SIGMETs :     Misc.  Thunderstorms  Icing  Turbulence  Mountain Waves  Volcanic Ashes






- Airport Elevation : 74 ft
- IATA code : EIN


EHEH - Eindhoven

CURRENT METAR :
  • 130855Z AUTO 13006KT 070V210 3100 R21/P3000U DZ FEW003 BKN005 OVC006 04/04 Q0972 YLO 14010KT 9999 SCT008 BKN013 BKN018 TEMPO 2500 DZRA SCT004 BKN005 BKN010

EXPIRED METARs :
  • 130825Z AUTO 13006KT 090V160 4700 -DZ SCT004 BKN006 OVC007 04/04 Q0972 YLO 14010KT 9999 SCT008 BKN013 BKN018 TEMPO 2500 DZRA SCT004 BKN005 BKN010
  • 130803Z AUTO 13007KT 090V200 2500 R21/P3000N DZ SCT004 BKN005 BKN008 04/04 Q0972 YLO 14010KT 9999 SCT008 BKN013 BKN018 TEMPO 2500 DZRA SCT004 BKN005 BKN010
  • 130755Z AUTO 14005KT 090V210 8000 -DZ FEW003 OVC004 04/04 Q0972 YLO 14010KT 9999 SCT008 BKN013 BKN018 TEMPO 3000 RADZ SCT004 BKN005 BKN010
  • 130726Z AUTO 11006KT 080V190 4000 DZ FEW005 BKN006 BKN007 FEW015CB 04/03 Q0971 YLO 14010KT 9999 SCT008 BKN013 BKN018 TEMPO 3000 RADZ SCT006 BKN010
  • 130725Z AUTO 11007KT 080V190 6000 DZ FEW005 BKN006 BKN007 FEW015CB 04/03 Q0972 YLO 14010KT 9999 SCT008 BKN013 BKN018 TEMPO 3000 RADZ SCT006 BKN010
  • 130708Z AUTO 11006KT 060V150 9999 -DZRA SCT005 BKN007 OVC009 04/03 Q0972 YLO 14010KT 9999 SCT008 BKN013 BKN018 TEMPO 3000 RADZ SCT006 BKN010
  • 130700Z AUTO 12008KT 070V150 9999 -RA SCT006 BKN008 OVC009 04/03 Q0971 YLO 14010KT 9999 SCT008 BKN013 BKN018 TEMPO 3000 RADZ SCT006 BKN010
  • 130655Z AUTO 11008KT 070V180 9999 -SHRA FEW005 SCT008 BKN010 04/03 Q0971 GRN 14010KT 9999 SCT008 BKN013 BKN018 TEMPO 3000 RADZ SCT006 BKN010
  • 130645Z AUTO 11008KT 070V160 9999 -RADZ FEW005 SCT007 BKN013 04/03 Q0972 GRN 14010KT 9999 SCT008 BKN013 BKN018 TEMPO 3000 RADZ SCT006 BKN010
  • 130631Z AUTO 12007KT 080V170 6000 -RA FEW005 SCT013 BKN015CB 04/03 Q0972 GRN 14010KT 9999 SCT008 BKN013 BKN018 TEMPO 3000 RADZ SCT006 BKN010
  • 130614Z AUTO 11008KT 080V170 9999 -RA FEW012 FEW015CB SCT022 BKN026 04/03 Q0972 WHT 14010KT 9999 SCT008 BKN013 BKN018 TEMPO 3000 RADZ SCT006 BKN010

TAF COR TAF EHEH
Valid from the 13 at 06:00 until the 14 at 12:00 UTC


130557Z 1306/1412 15010KT 9999 SCT012 OVC016
TEMPO 1306/1314 3000 RADZ SCT006 BKN010 BKN015
PROB40
TEMPO 1310/1312 VRB02KT
BECMG 1310/1313 27012G22KT
BECMG 1315/1317 23012KT 9999 NSW SCT018 BKN025
BECMG 1400/1403 19010G20KT
TEMPO 1404/1406 SCT008 BKN012
BECMG 1406/1409 25015G32KT



MET'MAP, your aeronautical weather chart ! - Copyright ORBIFLY December 2007 - Disclaimer

ORBIFLY MET'MAP TEAM :

Programming & Development : Alexandra Zaïnal
Concept & original design : Baudouin d'Aumeries
Assistance for programming : Marc-Olivier Méhu
Technical & hardware support : Manuel Goepfert

Contact : metmap@orbifly.com




SOURCES & CREDITS :

   NOAA